GTI8057 KCAK-KJAX
Flight info
| Callsign | GTI8057 |
|---|---|
| Flight time | N/A |
| Altitude | 32000 |
| Route | DCT CTW DCT JPU DCT HVQ J85 SPA DCT IRQ DCT FINNE OHDEA2 |
| Aircraft | B77L/H-SDE1E2E3FGHIJ2J3J4J5M1RWXY/LB1D1 |
Departure
| Time | 2026-04-19 22:53 |
|---|---|
| Airport | Akron Canton Regional Airport (KCAK) |
Arrival
| Time | N/A |
|---|---|
| Airport | Jacksonville International Airport (KJAX) |
| Time | Latitude | Longitude | Altitude | Speed | Heading |
|---|---|---|---|---|---|
| 2026-04-19 22:28 | 40.92492 | -81.44298 | 1227 ft | 0 kts | 272° |
| 2026-04-19 22:43 | 40.92492 | -81.44289 | 1227 ft | 4 kts | 281° |
| 2026-04-19 22:44 | 40.92485 | -81.44270 | 1227 ft | 4 kts | 10° |
| 2026-04-19 22:44 | 40.92460 | -81.44279 | 1227 ft | 4 kts | 6° |
| 2026-04-19 22:44 | 40.92454 | -81.44280 | 1227 ft | 1 kts | 1° |
| 2026-04-19 22:50 | 40.92471 | -81.44279 | 1227 ft | 9 kts | 1° |
| 2026-04-19 22:51 | 40.92555 | -81.44275 | 1227 ft | 14 kts | 4° |
| 2026-04-19 22:51 | 40.92639 | -81.44168 | 1226 ft | 9 kts | 90° |
| 2026-04-19 22:51 | 40.92625 | -81.44056 | 1220 ft | 11 kts | 135° |
| 2026-04-19 22:52 | 40.92588 | -81.44034 | 1220 ft | 0 kts | 178° |
| 2026-04-19 22:52 | 40.92556 | -81.44035 | 1220 ft | 28 kts | 181° |
| 2026-04-19 22:52 | 40.91986 | -81.44064 | 1224 ft | 137 kts | 182° |
| 2026-04-19 22:52 | 40.90729 | -81.44110 | 1488 ft | 209 kts | 185° |
| 2026-04-19 22:53 | 40.89206 | -81.44202 | 2587 ft | 232 kts | 187° |
| 2026-04-19 22:53 | 40.87500 | -81.44214 | 2619 ft | 249 kts | 185° |
| 2026-04-19 22:53 | 40.85761 | -81.44189 | 2595 ft | 250 kts | 185° |
| 2026-04-19 22:53 | 40.84043 | -81.44152 | 2600 ft | 245 kts | 185° |
| 2026-04-19 22:54 | 40.82395 | -81.44217 | 2598 ft | 228 kts | 190° |
| 2026-04-19 22:54 | 40.80867 | -81.44344 | 2574 ft | 210 kts | 189° |
| 2026-04-19 22:54 | 40.79446 | -81.44465 | 2901 ft | 205 kts | 189° |
| 2026-04-19 22:54 | 40.77909 | -81.44595 | 3480 ft | 243 kts | 189° |
| 2026-04-19 22:55 | 40.76135 | -81.44741 | 4258 ft | 260 kts | 188° |
| 2026-04-19 22:55 | 40.74332 | -81.44875 | 5579 ft | 261 kts | 189° |
| 2026-04-19 22:55 | 40.72492 | -81.45002 | 6757 ft | 266 kts | 189° |
| 2026-04-19 22:55 | 40.70642 | -81.45102 | 7891 ft | 268 kts | 189° |
| 2026-04-19 22:56 | 40.68760 | -81.45201 | 8878 ft | 274 kts | 190° |
| 2026-04-19 22:56 | 40.66866 | -81.45307 | 9948 ft | 278 kts | 190° |
| 2026-04-19 22:56 | 40.64890 | -81.45415 | 10849 ft | 288 kts | 191° |
| 2026-04-19 22:56 | 40.62817 | -81.45541 | 11179 ft | 316 kts | 190° |
| 2026-04-19 22:57 | 40.60516 | -81.45680 | 11421 ft | 346 kts | 189° |
| 2026-04-19 22:57 | 40.58037 | -81.45816 | 11961 ft | 365 kts | 188° |
| 2026-04-19 22:57 | 40.55492 | -81.45906 | 12873 ft | 368 kts | 189° |
| 2026-04-19 22:57 | 40.52927 | -81.46034 | 13755 ft | 369 kts | 190° |
| 2026-04-19 22:58 | 40.50341 | -81.46203 | 14038 ft | 377 kts | 190° |
| 2026-04-19 22:58 | 40.47712 | -81.46339 | 14020 ft | 378 kts | 189° |
| 2026-04-19 22:58 | 40.45091 | -81.46463 | 14292 ft | 378 kts | 190° |
| 2026-04-19 22:58 | 40.42467 | -81.46622 | 15227 ft | 380 kts | 190° |
| 2026-04-19 22:59 | 40.39797 | -81.46753 | 16061 ft | 388 kts | 190° |
| 2026-04-19 22:59 | 40.37070 | -81.46880 | 16903 ft | 394 kts | 191° |
| 2026-04-19 22:59 | 40.34311 | -81.47013 | 17722 ft | 400 kts | 191° |
| 2026-04-19 22:59 | 40.31507 | -81.47157 | 18531 ft | 406 kts | 191° |
| 2026-04-19 23:00 | 40.28660 | -81.47307 | 19211 ft | 413 kts | 192° |
| 2026-04-19 23:00 | 40.25775 | -81.47463 | 19890 ft | 418 kts | 193° |
| 2026-04-19 23:00 | 40.22830 | -81.47567 | 20545 ft | 430 kts | 190° |
| 2026-04-19 23:00 | 40.19789 | -81.47297 | 21245 ft | 443 kts | 185° |
| 2026-04-19 23:01 | 40.16700 | -81.46876 | 21883 ft | 450 kts | 185° |
| 2026-04-19 23:01 | 40.13565 | -81.46451 | 22404 ft | 458 kts | 186° |
| 2026-04-19 23:01 | 40.10366 | -81.46022 | 23017 ft | 465 kts | 187° |
| 2026-04-19 23:01 | 40.07127 | -81.45595 | 23674 ft | 470 kts | 187° |
| 2026-04-19 23:02 | 40.03849 | -81.45168 | 24237 ft | 474 kts | 187° |
| 2026-04-19 23:02 | 40.00563 | -81.44737 | 24862 ft | 476 kts | 187° |
| 2026-04-19 23:02 | 39.97260 | -81.44302 | 25565 ft | 476 kts | 187° |
| 2026-04-19 23:02 | 39.93957 | -81.43866 | 26210 ft | 478 kts | 186° |
| 2026-04-19 23:03 | 39.90647 | -81.43436 | 26859 ft | 478 kts | 186° |
| 2026-04-19 23:03 | 39.87335 | -81.43010 | 27554 ft | 480 kts | 186° |
| 2026-04-19 23:03 | 39.84007 | -81.42587 | 28187 ft | 481 kts | 186° |
| 2026-04-19 23:03 | 39.80664 | -81.42166 | 28719 ft | 485 kts | 186° |
| 2026-04-19 23:04 | 39.77306 | -81.41743 | 29254 ft | 487 kts | 186° |
| 2026-04-19 23:04 | 39.73933 | -81.41306 | 29889 ft | 486 kts | 186° |
| 2026-04-19 23:04 | 39.70578 | -81.40866 | 30549 ft | 481 kts | 186° |
| 2026-04-19 23:04 | 39.67277 | -81.40434 | 31290 ft | 474 kts | 186° |
| 2026-04-19 23:05 | 39.64011 | -81.40009 | 31969 ft | 469 kts | 186° |
| 2026-04-19 23:05 | 39.60753 | -81.39601 | 32162 ft | 473 kts | 186° |
| 2026-04-19 23:05 | 39.54221 | -81.38789 | 32146 ft | 469 kts | 186° |
| 2026-04-19 23:06 | 39.47755 | -81.38025 | 32097 ft | 462 kts | 189° |
| 2026-04-19 23:06 | 39.44591 | -81.38128 | 32147 ft | 449 kts | 196° |
| 2026-04-19 23:06 | 39.41513 | -81.38627 | 32147 ft | 443 kts | 200° |
| 2026-04-19 23:07 | 39.35654 | -81.40564 | 32146 ft | 432 kts | 207° |
| 2026-04-19 23:07 | 39.29865 | -81.42722 | 32150 ft | 435 kts | 206° |
| 2026-04-19 23:08 | 39.24035 | -81.44863 | 32088 ft | 435 kts | 206° |
| 2026-04-19 23:08 | 39.18207 | -81.46988 | 32137 ft | 435 kts | 206° |
| 2026-04-19 23:09 | 39.12395 | -81.49102 | 32151 ft | 433 kts | 206° |
| 2026-04-19 23:09 | 39.06600 | -81.51215 | 32157 ft | 432 kts | 206° |
| 2026-04-19 23:10 | 39.00821 | -81.53314 | 32142 ft | 432 kts | 206° |
| 2026-04-19 23:10 | 38.96836 | -81.54760 | 32166 ft | 431 kts | 206° |
| 2026-04-19 23:11 | 38.95056 | -81.55408 | 32164 ft | 431 kts | 206° |
| 2026-04-19 23:11 | 38.89314 | -81.57487 | 32170 ft | 431 kts | 205° |